Data for 12/10/2005

Time Sea-Level Adjusted Pressure Absolute Pressure Temperature Relative Humidity Dew Point   
(mb) (inHg) (mb) (inHg) (C) (F) (%) (C) (F)
00:05 1026 30.3 855 25.25 -4.3 24.3 64 -10.1 13.8
00:10 1026 30.3 855 25.25 -4.5 23.9 65 -10.2 13.6
00:15 1026 30.3 855 25.25 -4.5 23.9 65 -10.2 13.6
00:20 1026 30.3 855 25.25 -4.6 23.6 66 -10 14
00:25 1026 30.3 855 25.25 -5.3 22.5 69 -10.2 13.7
00:30 1026 30.3 855 25.25 -5.5 22 70 -10.1 13.8
00:35 1026 30.3 855 25.25 -5.7 21.8 71 -10.2 13.6
00:40 1026 30.3 855 25.25 -5.3 22.4 68 -10.3 13.5
00:45 1026 30.3 855 25.25 -5 23.1 67 -10.2 13.7
00:50 1026 30.3 855 25.25 -4.8 23.4 68 -9.8 14.4
00:55 1026 30.3 855 25.25 -4.9 23.2 70 -9.5 14.9
01:00 1026 30.3 855 25.25 -5.2 22.7 71 -9.7 14.6
01:05 1026 30.3 855 25.25 -4.6 23.7 68 -9.6 14.7
01:10 1026 30.3 855 25.25 -4.7 23.6 69 -9.5 15
01:15 1026 30.3 855 25.25 -4.7 23.5 70 -9.3 15.2
01:20 1026 30.3 855 25.25 -5.3 22.5 72 -9.5 14.8
01:25 1026 30.3 855 25.25 -5.6 21.8 73 -9.7 14.6
01:30 1026 30.3 855 25.25 -5.9 21.3 74 -9.9 14.2
01:35 1026 30.3 855 25.25 -6.2 20.8 75 -10 14
01:40 1026 30.3 855 25.25 -5.9 21.3 74 -9.8 14.4
01:45 1026 30.3 855 25.25 -5.7 21.7 74 -9.6 14.7
01:50 1026 30.3 855 25.25 -5.9 21.4 74 -9.9 14.2
01:55 1026 30.3 855 25.25 -6.2 20.9 75 -9.9 14.2
02:00 1026 30.3 855 25.25 -6.5 20.4 76 -10 14
02:05 1026 30.3 855 25.25 -6.7 20 78 -10 14.1
02:10 1026 30.3 855 25.25 -6.3 20.6 76 -9.9 14.2
02:15 1026 30.3 855 25.25 -6.4 20.5 77 -9.8 14.4
02:20 1026 30.3 855 25.25 -6.1 20.9 75 -9.8 14.3
02:25 1026 30.3 856 25.28 -6 21.2 75 -9.8 14.4
02:30 1026 30.3 855 25.25 -6.1 21 75 -9.9 14.2
02:35 1026 30.3 856 25.28 -6.3 20.7 76 -9.9 14.3
02:40 1026 30.3 856 25.28 -5.9 21.4 73 -10 14.1
02:45 1026 30.3 856 25.28 -5.9 21.4 73 -10 14
02:50 1026 30.3 856 25.28 -5.6 22 72 -9.9 14.2
02:55 1026 30.3 856 25.28 -5.8 21.5 73 -9.9 14.1
03:00 1026 30.3 856 25.28 -5.7 21.7 74 -9.7 14.6
03:05 1026 30.3 856 25.28 -5.5 22.1 70 -10.2 13.7
03:10 1026 30.3 856 25.28 -5.7 21.7 72 -10.1 13.9
03:15 1026 30.3 856 25.28 -6.3 20.6 73 -10.4 13.2
03:20 1026 30.3 855 25.25 -6.2 20.8 71 -10.6 12.9
03:25 1026 30.3 855 25.25 -6.6 20.1 71 -10.9 12.3
03:30 1026 30.3 855 25.25 -6.2 20.9 67 -11.4 11.5
03:35 1026 30.3 855 25.25 -5.1 22.8 63 -11.1 12.1
03:40 1026 30.3 855 25.25 -5.3 22.5 65 -10.9 12.3
03:45 1026 30.3 856 25.28 -6.3 20.7 70 -10.9 12.4
03:50 1026 30.3 856 25.28 -6.5 20.3 70 -11.2 11.8
03:55 1026 30.3 856 25.28 -6.3 20.7 70 -10.9 12.4
04:00 1026 30.3 856 25.28 -6.3 20.7 70 -10.8 12.6
04:05 1026 30.3 856 25.28 -5.5 22.1 66 -10.9 12.4
04:10 1026 30.3 856 25.28 -5.1 22.8 66 -10.6 13
04:15 1026 30.3 856 25.28 -5.2 22.7 68 -10.3 13.5
04:20 1027 30.33 856 25.28 -5.3 22.4 68 -10.3 13.4
04:25 1027 30.33 856 25.28 -5.1 22.8 66 -10.4 13.2
04:30 1027 30.33 856 25.28 -5 22.9 68 -10.1 13.8
04:35 1027 30.33 856 25.28 -5.2 22.7 68 -10.2 13.6
04:40 1027 30.33 856 25.28 -5.2 22.6 68 -10.2 13.7
04:45 1027 30.33 856 25.28 -5.7 21.7 71 -10.2 13.6
04:50 1027 30.33 856 25.28 -5.9 21.3 71 -10.3 13.4
04:55 1027 30.33 856 25.28 -6 21.1 71 -10.4 13.3
05:00 1027 30.33 856 25.28 -6.1 21 72 -10.3 13.5
05:05 1027 30.33 856 25.28 -5.8 21.6 73 -9.9 14.1
05:10 1027 30.33 856 25.28 -5.3 22.4 70 -10.1 13.9
05:15 1027 30.33 856 25.28 -5.4 22.2 69 -10.3 13.5
05:20 1027 30.33 856 25.28 -5.2 22.6 70 -9.8 14.4
05:25 1027 30.33 856 25.28 -5.7 21.7 74 -9.7 14.6
05:30 1027 30.33 856 25.28 -5.5 22.1 72 -9.8 14.4
05:35 1027 30.33 856 25.28 -5.6 21.9 72 -10 14.1
05:40 1027 30.33 856 25.28 -6 21.2 71 -10.4 13.2
05:45 1027 30.33 856 25.28 -6.1 21 71 -10.5 13.1
05:50 1027 30.33 856 25.28 -6.3 20.6 74 -10.3 13.4
05:55 1027 30.33 856 25.28 -6.3 20.6 72 -10.6 13
06:00 1027 30.33 856 25.28 -6.6 20.1 74 -10.5 13.1
06:05 1027 30.33 856 25.28 -6.4 20.5 74 -10.4 13.3
06:10 1027 30.33 856 25.28 -6.6 20.2 75 -10.3 13.4
06:15 1027 30.33 856 25.28 -6.6 20.1 75 -10.3 13.5
06:20 1027 30.33 856 25.28 -6.3 20.7 72 -10.5 13
06:25 1027 30.33 856 25.28 -6.5 20.4 74 -10.4 13.2
06:30 1027 30.33 856 25.28 -6.7 19.9 75 -10.4 13.3
06:35 1027 30.33 856 25.28 -6.8 19.7 79 -9.9 14.1
06:40 1027 30.33 856 25.28 -6.5 20.3 74 -10.5 13.2
06:45 1027 30.33 856 25.28 -6.5 20.2 74 -10.5 13.1
06:50 1027 30.33 856 25.28 -6.5 20.3 73 -10.6 12.9
06:55 1027 30.33 856 25.28 -6.5 20.3 73 -10.6 12.9
07:00 1027 30.33 856 25.28 -7.2 19 76 -10.8 12.6
07:05 1027 30.33 856 25.28 -7.5 18.5 77 -10.9 12.4
07:10 1027 30.33 856 25.28 -7.7 18.2 77 -11 12.2
07:15 1027 30.33 856 25.28 -7.6 18.3 77 -11 12.3
07:20 1027 30.33 856 25.28 -7.2 19 76 -10.8 12.5
07:25 1027 30.33 856 25.28 -6.8 19.7 75 -10.6 12.9
07:30 1027 30.33 856 25.28 -6.6 20.1 74 -10.5 13.1
07:35 1027 30.33 856 25.28 -6.3 20.7 72 -10.5 13.1
07:40 1027 30.33 856 25.28 -6.3 20.7 75 -10 14.1
07:45 1027 30.33 856 25.28 -6.9 19.5 75 -10.7 12.7
07:50 1027 30.33 856 25.28 -7.2 19 76 -10.7 12.7
07:55 1027 30.33 856 25.28 -7 19.3 73 -11.1 12
08:00 1027 30.33 856 25.28 -6.7 20 75 -10.5 13.1
08:05 1027 30.33 856 25.28 -6.7 20 76 -10.1 13.7
08:10 1027 30.33 856 25.28 -6.7 20 76 -10.2 13.6
08:15 1027 30.33 856 25.28 -6.7 19.9 73 -10.9 12.4
08:20 1027 30.33 856 25.28 -6.9 19.6 73 -11 12.3
08:25 1027 30.33 856 25.28 -6.6 20.1 72 -10.9 12.4
08:30 1027 30.33 856 25.28 -6.4 20.5 71 -10.8 12.5
08:35 1027 30.33 856 25.28 -6.4 20.4 71 -10.8 12.5
08:40 1027 30.33 856 25.28 -6.6 20 72 -10.9 12.3
08:45 1027 30.33 856 25.28 -6.2 20.9 69 -10.9 12.4
08:50 1027 30.33 856 25.28 -5.6 21.9 68 -10.6 12.9
08:55 1027 30.33 856 25.28 -5.4 22.3 66 -10.7 12.7
09:00 1027 30.33 856 25.28 -4.9 23.2 64 -10.7 12.8
09:05 1027 30.33 856 25.28 -4.6 23.7 64 -10.4 13.2
09:10 1027 30.33 856 25.28 -4.4 24 62 -10.7 12.8
09:15 1027 30.33 857 25.31 -4.3 24.2 62 -10.6 12.9
09:20 1027 30.33 857 25.31 -5.6 21.9 68 -10.5 13
09:25 1028 30.36 857 25.31 -6.2 20.9 69 -11 12.2
09:30 1028 30.36 857 25.31 -6.7 19.9 71 -11.2 11.9
09:35 1028 30.36 857 25.31 -6.8 19.8 69 -11.4 11.4
09:40 1028 30.36 857 25.31 -6.3 20.7 67 -11.4 11.4
09:45 1028 30.36 857 25.31 -5.5 22.1 65 -11.1 12
09:50 1028 30.36 857 25.31 -4.9 23.1 62 -11.1 12
09:55 1028 30.36 857 25.31 -4.5 24 61 -11 12.2
10:00 1028 30.36 857 25.31 -4.3 24.2 61 -10.8 12.6
10:05 1028 30.36 857 25.31 -4 24.8 59 -10.8 12.5
10:10 1028 30.36 857 25.31 -3.9 25.1 58 -11 12.2
10:15 1028 30.36 857 25.31 -3.4 25.9 57 -10.7 12.7
10:20 1028 30.36 857 25.31 -2.7 27.2 55 -10.5 13.2
10:25 1028 30.36 857 25.31 -2.3 27.9 53 -10.6 13
10:30 1028 30.36 857 25.31 -1.9 28.6 52 -10.5 13.1
10:35 1028 30.36 857 25.31 -1.8 28.7 54 -10 14
10:40 1028 30.36 857 25.31 -3.2 26.2 58 -10.4 13.2
10:45 1028 30.36 857 25.31 -2.5 27.5 54 -10.5 13.1
10:50 1028 30.36 857 25.31 -2.1 28.3 54 -10.1 13.9
10:55 1028 30.36 857 25.31 -1.9 28.6 53 -10.2 13.6
11:00 1028 30.36 857 25.31 -2 28.5 55 -9.8 14.4
11:05 1028 30.36 857 25.31 -2.4 27.7 57 -9.8 14.3
11:10 1028 30.36 857 25.31 -2.4 27.7 56 -10 13.9
11:15 1028 30.36 857 25.31 -2.7 27.2 57 -10 14
11:20 1028 30.36 857 25.31 -2.7 27.2 56 -10.3 13.4
11:25 1028 30.36 857 25.31 -2.1 28.2 56 -9.8 14.4
11:30 1027 30.33 857 25.31 -2.1 28.3 54 -10.1 13.8
11:35 1028 30.36 857 25.31 -1.5 29.3 52 -10 14
11:40 1028 30.36 857 25.31 -1.5 29.3 52 -10.1 13.8
11:45 1027 30.33 857 25.31 -1.9 28.5 52 -10.5 13.1
11:50 1027 30.33 857 25.31 -2.1 28.2 51 -10.8 12.5
11:55 1027 30.33 856 25.28 -2.1 28.3 51 -10.9 12.5
12:00 1027 30.33 856 25.28 -1.7 29 51 -10.6 13
12:05 1027 30.33 856 25.28 -1.3 29.7 48 -11 12.2
12:10 1027 30.33 856 25.28 -1.2 29.8 47 -11.2 11.9
12:15 1027 30.33 856 25.28 -0.6 30.8 47 -10.5 13
12:20 1027 30.33 856 25.28 0.1 32.2 45 -10.4 13.2
12:25 1027 30.33 856 25.28 -0.1 31.9 47 -10 14
12:30 1027 30.33 856 25.28 -0.3 31.5 49 -9.9 14.3
12:35 1027 30.33 856 25.28 -0.4 31.2 49 -9.8 14.3
12:40 1027 30.33 856 25.28 -1 30.2 52 -9.7 14.5
12:45 1027 30.33 856 25.28 -1 30.3 50 -10.1 13.8
12:50 1027 30.33 856 25.28 -0.3 31.4 47 -10.4 13.4
12:55 1027 30.33 856 25.28 -0.1 31.8 47 -10.1 13.8
13:00 1027 30.33 856 25.28 -0.9 30.5 49 -10.3 13.4
13:05 1027 30.33 856 25.28 -1.3 29.7 50 -10.5 13.1
13:10 1027 30.33 856 25.28 -1.4 29.4 49 -10.9 12.4
13:15 1027 30.33 856 25.28 -2.1 28.2 54 -10.3 13.5
13:20 1027 30.33 856 25.28 -2.1 28.2 54 -10.3 13.5
13:25 1027 30.33 856 25.28 -1.2 29.9 51 -10.1 13.9
13:30 1027 30.33 856 25.28 -0.8 30.6 50 -9.8 14.3
13:35 1027 30.33 856 25.28 -0.9 30.3 53 -9.5 15
13:40 1027 30.33 856 25.28 -0.8 30.5 53 -9.3 15.2
13:45 1026 30.3 856 25.28 -1.1 30.1 53 -9.4 15
13:50 1026 30.3 856 25.28 -0.7 30.8 51 -9.6 14.7
13:55 1026 30.3 856 25.28 -0.1 31.9 50 -9.2 15.4
14:00 1026 30.3 856 25.28 0.3 32.6 50 -9.1 15.7
14:05 1026 30.3 856 25.28 0.7 33.2 48 -9 15.7
14:10 1026 30.3 856 25.28 0 32 53 -8.3 17
14:15 1026 30.3 855 25.25 0.7 33.3 48 -9 15.8
14:20 1026 30.3 856 25.28 1.5 34.8 46 -8.8 16.2
14:25 1026 30.3 856 25.28 1.3 34.4 49 -8.2 17.3
14:30 1026 30.3 855 25.25 0.8 33.5 52 -8.1 17.5
14:35 1026 30.3 855 25.25 0.8 33.5 52 -8 17.6
14:40 1026 30.3 855 25.25 0.9 33.6 49 -8.6 16.5
14:45 1026 30.3 855 25.25 1.3 34.3 48 -8.5 16.7
14:50 1026 30.3 855 25.25 1.1 34 50 -8.3 17.1
14:55 1026 30.3 855 25.25 1.5 34.8 51 -7.5 18.5
15:00 1026 30.3 855 25.25 2.1 35.8 48 -7.9 17.7
15:05 1026 30.3 855 25.25 2.2 35.9 48 -7.7 18.1
15:10 1026 30.3 855 25.25 2.4 36.3 48 -7.5 18.5
15:15 1026 30.3 855 25.25 1.8 35.3 50 -7.6 18.4
15:20 1026 30.3 855 25.25 1.4 34.5 52 -7.4 18.7
15:25 1026 30.3 855 25.25 1.1 34.1 50 -8.1 17.4
15:30 1026 30.3 855 25.25 1.3 34.4 50 -7.9 17.8
15:35 1026 30.3 855 25.25 1.2 34.2 50 -8 17.5
15:40 1026 30.3 855 25.25 0.9 33.6 50 -8.4 16.8
15:45 1026 30.3 855 25.25 0.8 33.5 51 -8.2 17.3
15:50 1026 30.3 855 25.25 0.3 32.6 51 -8.6 16.6
15:55 1026 30.3 855 25.25 -0.5 31.1 52 -9.1 15.6
16:00 1026 30.3 855 25.25 -0.3 31.4 54 -8.5 16.7
16:05 1026 30.3 855 25.25 -0.2 31.7 53 -8.6 16.5
16:10 1026 30.3 855 25.25 -0.2 31.7 51 -9.1 15.6
16:15 1026 30.3 855 25.25 -0.5 31.2 49 -9.8 14.3
16:20 1026 30.3 855 25.25 -0.7 30.7 50 -9.8 14.3
16:25 1026 30.3 855 25.25 -0.8 30.5 50 -9.9 14.1
16:30 1026 30.3 855 25.25 -0.6 30.8 49 -10 14
16:35 1026 30.3 855 25.25 -0.4 31.3 49 -9.9 14.3
16:40 1026 30.3 855 25.25 -0.9 30.3 50 -10.1 13.9
16:45 1026 30.3 855 25.25 -1 30.3 50 -10.1 13.8
16:50 1026 30.3 855 25.25 -0.9 30.4 51 -9.7 14.6
16:55 1026 30.3 855 25.25 -1.4 29.5 54 -9.6 14.7
17:00 1026 30.3 855 25.25 -1.5 29.4 55 -9.5 15
17:05 1026 30.3 855 25.25 -1.6 29.2 56 -9.3 15.2
17:10 1026 30.3 855 25.25 -1.8 28.7 57 -9.3 15.2
17:15 1026 30.3 855 25.25 -2 28.5 57 -9.3 15.2
17:20 1026 30.3 855 25.25 -1.5 29.2 56 -9.2 15.4
17:25 1026 30.3 855 25.25 -0.9 30.4 55 -8.8 16.1
17:30 1026 30.3 855 25.25 -1.6 29 62 -8 17.6
17:35 1025 30.27 855 25.25 -2.5 27.5 66 -8 17.5
17:40 1025 30.27 855 25.25 -3 26.7 67 -8.2 17.2
17:45 1025 30.27 855 25.25 -3 26.6 67 -8.2 17.2
17:50 1025 30.27 854 25.22 -3.2 26.2 69 -8 17.5
17:55 1025 30.27 854 25.22 -3.1 26.4 68 -8.2 17.2
18:00 1025 30.27 854 25.22 -2.7 27.1 65 -8.5 16.7
18:05 1025 30.27 854 25.22 -2.6 27.2 66 -8.2 17.2
18:10 1025 30.27 854 25.22 -2.9 26.8 65 -8.7 16.4
18:15 1025 30.27 854 25.22 -2.8 27 65 -8.4 16.9
18:20 1025 30.27 854 25.22 -2.6 27.3 66 -8.1 17.4
18:25 1025 30.27 854 25.22 -2.5 27.5 63 -8.6 16.6
18:30 1025 30.27 854 25.22 -2.3 27.8 62 -8.7 16.3
18:35 1025 30.27 854 25.22 -2.3 27.8 63 -8.5 16.8
18:40 1025 30.27 854 25.22 -2.4 27.7 60 -9.1 15.6
18:45 1025 30.27 854 25.22 -1.8 28.8 60 -8.6 16.5
18:50 1025 30.27 854 25.22 -2 28.4 60 -8.8 16.2
18:55 1025 30.27 854 25.22 -1.8 28.8 57 -9.2 15.4
19:00 1025 30.27 854 25.22 -1.6 29.1 60 -8.4 16.8
19:05 1025 30.27 854 25.22 -2.3 28 61 -8.7 16.3
19:10 1025 30.27 854 25.22 -1.8 28.7 60 -8.7 16.4
19:15 1025 30.27 854 25.22 -1.3 29.6 57 -8.7 16.3
19:20 1025 30.27 854 25.22 -1.3 29.6 58 -8.7 16.4
19:25 1025 30.27 854 25.22 -1.2 29.8 58 -8.5 16.7
19:30 1025 30.27 854 25.22 -1.3 29.7 58 -8.6 16.5
19:35 1025 30.27 854 25.22 -1.2 29.8 57 -8.6 16.5
19:40 1025 30.27 854 25.22 -1.2 29.8 57 -8.6 16.5
19:45 1025 30.27 854 25.22 -1.2 29.8 58 -8.6 16.5
19:50 1025 30.27 854 25.22 -1.4 29.6 58 -8.6 16.5
19:55 1025 30.27 854 25.22 -1.6 29.2 59 -8.5 16.6
20:00 1025 30.27 854 25.22 -1.8 28.7 60 -8.5 16.6
20:05 1024 30.24 854 25.22 -2.1 28.3 61 -8.5 16.6
20:10 1025 30.27 854 25.22 -2.3 27.9 62 -8.6 16.5
20:15 1025 30.27 854 25.22 -2.3 27.8 63 -8.5 16.7
20:20 1025 30.27 854 25.22 -2.5 27.5 63 -8.7 16.4
20:25 1025 30.27 854 25.22 -2.3 27.9 62 -8.6 16.5
20:30 1025 30.27 854 25.22 -2.3 27.9 63 -8.3 17
20:35 1024 30.24 854 25.22 -2.6 27.3 65 -8.2 17.2
20:40 1024 30.24 854 25.22 -3 26.6 67 -8.3 17
20:45 1024 30.24 854 25.22 -3.3 26.1 68 -8.3 17
20:50 1024 30.24 854 25.22 -3.3 26 69 -8.1 17.4
20:55 1024 30.24 854 25.22 -3.3 26.1 68 -8.3 17.1
21:00 1024 30.24 854 25.22 -3.2 26.3 68 -8.2 17.2
21:05 1024 30.24 854 25.22 -3 26.6 69 -8 17.6
21:10 1024 30.24 854 25.22 -2.7 27.2 67 -8 17.6
21:15 1024 30.24 854 25.22 -2.5 27.6 67 -7.8 17.9
21:20 1024 30.24 853 25.19 -2.5 27.5 67 -7.8 17.9
21:25 1024 30.24 853 25.19 -2.3 27.9 67 -7.7 18.1
21:30 1024 30.24 853 25.19 -2.4 27.7 66 -7.8 17.9
21:35 1024 30.24 853 25.19 -2.4 27.8 67 -7.8 18
21:40 1024 30.24 853 25.19 -2.4 27.8 67 -7.6 18.3
21:45 1024 30.24 853 25.19 -2.4 27.7 67 -7.7 18.1
21:50 1024 30.24 853 25.19 -2.5 27.6 68 -7.6 18.3
21:55 1024 30.24 853 25.19 -2.4 27.6 67 -7.7 18.1
22:00 1024 30.24 853 25.19 -2.3 27.9 66 -7.7 18.1
22:05 1024 30.24 853 25.19 -2.6 27.3 67 -7.9 17.9
22:10 1024 30.24 854 25.22 -2.6 27.3 69 -7.5 18.5
22:15 1024 30.24 854 25.22 -2.4 27.6 69 -7.4 18.7
22:20 1024 30.24 854 25.22 -2.5 27.6 69 -7.4 18.6
22:25 1024 30.24 854 25.22 -2.2 28 68 -7.3 18.8
22:30 1024 30.24 854 25.22 -2.2 28 67 -7.5 18.5
22:35 1024 30.24 854 25.22 -1.8 28.8 66 -7.4 18.7
22:40 1024 30.24 854 25.22 -1.8 28.7 66 -7.3 18.8
22:45 1024 30.24 853 25.19 -1.9 28.7 66 -7.4 18.7
22:50 1024 30.24 853 25.19 -1.8 28.8 65 -7.5 18.5
22:55 1024 30.24 853 25.19 -1.9 28.6 66 -7.4 18.7
23:00 1024 30.24 853 25.19 -2.7 27.2 69 -7.5 18.4
23:05 1024 30.24 854 25.22 -2.9 26.8 70 -7.7 18.2
23:10 1024 30.24 853 25.19 -3.1 26.5 71 -7.7 18.2
23:15 1024 30.24 853 25.19 -3.1 26.5 71 -7.6 18.3
23:20 1024 30.24 853 25.19 -2.9 26.8 71 -7.5 18.6
23:25 1024 30.24 853 25.19 -2.6 27.2 69 -7.6 18.3
23:30 1024 30.24 853 25.19 -2.4 27.7 69 -7.3 18.8
23:35 1024 30.24 853 25.19 -2.1 28.3 67 -7.3 18.8
23:40 1024 30.24 853 25.19 -2.4 27.7 69 -7.3 18.8
23:45 1024 30.24 853 25.19 -2.6 27.4 69 -7.5 18.5
23:50 1024 30.24 853 25.19 -2.8 26.9 70 -7.6 18.3
23:55 1024 30.24 853 25.19 -3.5 25.8 73 -7.6 18.3
24:00 1024 30.24 853 25.19 -3.6 25.4 73 -7.8 17.9